createdAt,value
2019-04-07T00:01:55.998Z,96725.06
2019-04-07T00:04:56.654Z,96723.97
2019-04-07T00:07:29.715Z,96734.14
2019-04-07T00:10:09.880Z,96736.11
2019-04-07T00:12:44.113Z,96731.00
2019-04-07T00:15:16.837Z,96732.41
2019-04-07T00:17:48.231Z,96728.89
2019-04-07T00:20:20.860Z,96723.81
2019-04-07T00:22:52.476Z,96727.35
2019-04-07T00:25:26.860Z,96727.03
2019-04-07T00:27:59.669Z,96720.25
2019-04-07T00:30:30.823Z,96719.78
2019-04-07T00:33:22.019Z,96722.58
2019-04-07T00:36:07.354Z,96723.61
2019-04-07T00:38:38.415Z,96730.14
2019-04-07T00:41:24.855Z,96728.84
2019-04-07T00:44:00.304Z,96729.30
2019-04-07T00:46:31.298Z,96725.95
2019-04-07T00:49:04.006Z,96725.69
2019-04-07T00:51:36.022Z,96722.81
2019-04-07T00:54:07.604Z,96726.70
2019-04-07T00:56:39.109Z,96724.31
2019-04-07T00:59:09.965Z,96722.48
2019-04-07T01:01:41.402Z,96720.62
2019-04-07T01:04:12.298Z,96723.66
2019-04-07T01:06:43.703Z,96719.70
2019-04-07T01:09:14.652Z,96721.77
2019-04-07T01:11:47.462Z,96721.05
2019-04-07T01:14:19.824Z,96720.39
2019-04-07T01:16:50.778Z,96713.80
2019-04-07T01:19:24.441Z,96714.30
2019-04-07T01:21:55.818Z,96721.58
2019-04-07T01:24:26.925Z,96721.05
2019-04-07T01:27:00.632Z,96718.30
2019-04-07T01:29:32.188Z,96726.16
2019-04-07T01:32:07.175Z,96719.06
2019-04-07T01:34:37.970Z,96722.19
2019-04-07T01:37:30.870Z,96723.03
2019-04-07T01:40:02.404Z,96717.20
2019-04-07T01:42:39.803Z,96716.92
2019-04-07T01:46:15.504Z,96710.07
2019-04-07T01:49:32.182Z,96710.37
2019-04-07T01:52:23.694Z,96701.45
2019-04-07T01:55:09.207Z,96705.72
2019-04-07T01:58:07.871Z,96700.55
2019-04-07T02:00:56.583Z,96702.78
2019-04-07T02:07:49.032Z,96695.02
2019-04-07T02:10:32.933Z,96697.95
2019-04-07T02:13:16.574Z,96695.81
2019-04-07T02:16:13.559Z,96705.38
2019-04-07T02:19:03.586Z,96711.93
2019-04-07T02:21:44.956Z,96714.63
2019-04-07T02:24:39.887Z,96718.88
2019-04-07T02:27:59.937Z,96715.82
2019-04-07T02:31:01.040Z,96717.77
2019-04-07T02:33:50.035Z,96721.66
2019-04-07T02:36:35.766Z,96715.74
2019-04-07T02:39:32.733Z,96712.95
2019-04-07T02:42:17.069Z,96710.66
2019-04-07T02:45:21.965Z,96709.07
2019-04-07T02:48:10.826Z,96711.13
2019-04-07T02:51:15.315Z,96708.52
2019-04-07T02:54:09.406Z,96706.96
2019-04-07T02:56:56.053Z,96711.48
2019-04-07T03:00:13.940Z,96716.23
2019-04-07T03:03:02.300Z,96716.87
2019-04-07T03:05:45.598Z,96709.73
2019-04-07T03:08:41.189Z,96713.73
2019-04-07T03:11:37.454Z,96718.08
2019-04-07T03:14:19.712Z,96718.08
2019-04-07T03:17:16.416Z,96718.36
2019-04-07T03:20:07.078Z,96725.92
2019-04-07T03:22:57.000Z,96725.27
2019-04-07T03:26:16.603Z,96726.28
2019-04-07T03:29:05.329Z,96723.06
2019-04-07T03:31:49.130Z,96727.97
2019-04-07T03:34:38.744Z,96728.98
2019-04-07T03:37:36.034Z,96731.50
2019-04-07T03:40:13.872Z,96739.34
2019-04-07T03:42:55.730Z,96736.20
2019-04-07T03:45:32.930Z,96743.13
2019-04-07T03:48:23.037Z,96744.43
2019-04-07T03:51:19.069Z,96746.92
2019-04-07T03:54:07.601Z,96746.99
2019-04-07T03:56:56.823Z,96747.73
2019-04-07T03:59:52.538Z,96749.05
2019-04-07T04:06:07.278Z,96743.41
2019-04-07T04:08:52.911Z,96738.03
2019-04-07T04:11:37.713Z,96739.06
2019-04-07T04:14:31.541Z,96755.97
2019-04-07T04:17:04.354Z,96754.92
2019-04-07T04:19:51.836Z,96758.34
2019-04-07T04:22:26.702Z,96760.30
2019-04-07T04:25:02.917Z,96757.86
2019-04-07T04:27:35.032Z,96763.14
2019-04-07T04:30:07.129Z,96767.48
2019-04-07T04:32:39.344Z,96772.55
2019-04-07T04:35:10.763Z,96774.86
2019-04-07T04:37:48.312Z,96782.72
2019-04-07T04:40:16.067Z,96776.88
2019-04-07T04:42:48.454Z,96781.71
2019-04-07T04:45:19.345Z,96793.18
2019-04-07T04:47:50.433Z,96785.94
2019-04-07T04:50:21.436Z,96791.50
2019-04-07T04:52:52.825Z,96794.44
2019-04-07T04:55:24.292Z,96797.69
2019-04-07T04:58:09.998Z,96804.05
2019-04-07T05:00:42.855Z,96800.52
2019-04-07T05:03:15.995Z,96803.73
2019-04-07T05:05:46.959Z,96807.37
2019-04-07T05:08:17.729Z,96808.66
2019-04-07T05:10:48.584Z,96814.58
2019-04-07T05:13:19.849Z,96828.84
2019-04-07T05:15:51.106Z,96828.70
2019-04-07T05:18:22.264Z,96833.98
2019-04-07T05:20:54.251Z,96833.98
2019-04-07T05:23:25.186Z,96835.67
2019-04-07T05:25:56.178Z,96833.95
2019-04-07T05:28:36.816Z,96839.45
2019-04-07T05:31:05.751Z,96838.16
2019-04-07T05:33:36.769Z,96838.55
2019-04-07T05:36:08.228Z,96837.08
2019-04-07T05:38:39.588Z,96842.08
2019-04-07T05:41:15.674Z,96843.86
2019-04-07T05:43:47.023Z,96848.41
2019-04-07T05:46:17.805Z,96844.62
2019-04-07T05:48:50.497Z,96847.13
2019-04-07T05:52:35.422Z,96847.66
2019-04-07T05:55:07.865Z,96854.16
2019-04-07T05:57:39.929Z,96856.23
2019-04-07T06:00:17.259Z,96852.52
2019-04-07T06:02:48.885Z,96857.79
2019-04-07T06:05:20.091Z,96861.96
2019-04-07T06:07:51.563Z,96860.30
2019-04-07T06:10:27.640Z,96864.09
2019-04-07T06:12:56.525Z,96869.01
2019-04-07T06:15:27.614Z,96865.02
2019-04-07T06:18:00.621Z,96868.06
2019-04-07T06:21:24.552Z,96863.04
2019-04-07T06:23:58.572Z,96857.81
2019-04-07T06:26:27.865Z,96869.91
2019-04-07T06:28:59.835Z,96861.00
2019-04-07T06:31:32.228Z,96861.34
2019-04-07T06:34:03.232Z,96858.05
2019-04-07T06:36:34.144Z,96854.16
2019-04-07T06:39:07.467Z,96857.33
2019-04-07T06:41:39.057Z,96857.88
2019-04-07T06:44:13.749Z,96864.11
2019-04-07T06:47:07.749Z,96868.70
2019-04-07T06:49:53.124Z,96868.73
2019-04-07T06:53:34.934Z,96865.64
2019-04-07T06:56:25.996Z,96865.40
2019-04-07T07:00:03.291Z,96864.95
2019-04-07T07:03:13.716Z,96873.66
2019-04-07T07:06:03.620Z,96873.81
2019-04-07T07:09:19.180Z,96866.05
2019-04-07T07:12:38.813Z,96865.92
2019-04-07T07:15:36.456Z,96867.55
2019-04-07T07:21:41.417Z,96867.02
2019-04-07T07:24:15.706Z,96866.47
2019-04-07T07:26:52.962Z,96870.73
2019-04-07T07:32:16.953Z,96871.48
2019-04-07T07:34:58.716Z,96871.77
2019-04-07T07:37:31.753Z,96877.09
2019-04-07T07:40:18.362Z,96876.75
2019-04-07T07:42:50.717Z,96875.20
2019-04-07T07:45:22.937Z,96875.53
2019-04-07T07:47:54.865Z,96881.98
2019-04-07T07:50:26.610Z,96885.64
2019-04-07T07:55:38.694Z,96886.81
2019-04-07T07:58:13.838Z,96891.55
2019-04-07T08:00:50.690Z,96898.05
2019-04-07T08:03:24.156Z,96899.00
2019-04-07T08:06:04.793Z,96898.39
2019-04-07T08:09:09.904Z,96898.17
2019-04-07T08:11:49.023Z,96896.97
2019-04-07T08:14:42.577Z,96904.35
2019-04-07T08:17:13.724Z,96906.16
2019-04-07T08:19:45.404Z,96915.41
2019-04-07T08:22:27.525Z,96920.26
2019-04-07T08:24:51.982Z,96917.67
2019-04-07T08:27:24.524Z,96917.61
2019-04-07T08:29:56.060Z,96924.23
2019-04-07T08:32:30.773Z,96932.80
2019-04-07T08:35:02.674Z,96929.87
2019-04-07T08:37:31.880Z,96930.90
2019-04-07T08:40:07.078Z,96929.01
2019-04-07T08:42:35.812Z,96922.52
2019-04-07T08:45:08.345Z,96926.35
2019-04-07T08:47:39.194Z,96927.98
2019-04-07T08:50:10.505Z,96920.46
2019-04-07T08:52:43.807Z,96922.05
2019-04-07T08:55:15.637Z,96923.20
2019-04-07T08:57:46.912Z,96924.03
2019-04-07T09:00:21.621Z,96925.86
2019-04-07T09:03:01.828Z,96930.36
2019-04-07T09:05:30.991Z,96929.66
2019-04-07T09:08:03.515Z,96930.09
2019-04-07T09:10:54.770Z,96924.34
2019-04-07T09:13:25.535Z,96926.09
2019-04-07T09:19:29.946Z,96927.27
2019-04-07T09:22:23.207Z,96933.31
2019-04-07T09:25:15.550Z,96930.30
2019-04-07T09:27:55.809Z,96925.22
2019-04-07T09:30:40.954Z,96933.31
2019-04-07T09:33:39.632Z,96929.56
2019-04-07T09:36:21.246Z,96931.68
2019-04-07T09:39:09.811Z,96937.36
2019-04-07T09:41:55.214Z,96942.72
2019-04-07T09:45:03.281Z,96941.73
2019-04-07T09:48:00.639Z,96943.53
2019-04-07T09:50:55.465Z,96947.61
2019-04-07T09:53:48.808Z,96949.77
2019-04-07T09:56:36.459Z,96947.10
2019-04-07T09:59:39.649Z,96947.56
2019-04-07T10:02:34.149Z,96951.94
2019-04-07T10:06:00.815Z,96951.63
2019-04-07T10:08:52.451Z,96950.66
2019-04-07T10:11:42.034Z,96958.25
2019-04-07T10:14:37.586Z,96958.20
2019-04-07T10:17:21.143Z,96960.09
2019-04-07T10:20:23.124Z,96963.11
2019-04-07T10:23:07.165Z,96970.88
2019-04-07T10:26:05.104Z,96966.98
2019-04-07T10:28:44.207Z,96966.94
2019-04-07T10:31:40.929Z,96967.86
2019-04-07T10:34:33.266Z,96950.52
2019-04-07T10:37:23.173Z,96944.70
2019-04-07T10:40:18.886Z,96947.35
2019-04-07T10:43:08.540Z,96939.55
2019-04-07T10:45:44.900Z,96940.88
2019-04-07T10:48:26.973Z,96939.33
2019-04-07T10:51:19.742Z,96940.52
2019-04-07T10:54:11.519Z,96941.05
2019-04-07T10:57:02.124Z,96942.01
2019-04-07T10:59:53.261Z,96943.22
2019-04-07T11:02:52.793Z,96944.95
2019-04-07T11:05:41.046Z,96945.45
2019-04-07T11:08:40.021Z,96948.85
2019-04-07T11:11:27.240Z,96944.30
2019-04-07T11:14:07.977Z,96935.05
2019-04-07T11:16:54.983Z,96930.44
2019-04-07T11:19:44.457Z,96932.07
2019-04-07T11:22:36.877Z,96934.07
2019-04-07T11:25:27.370Z,96932.91
2019-04-07T11:28:16.583Z,96934.53
2019-04-07T11:31:06.357Z,96938.31
2019-04-07T11:33:52.541Z,96925.11
2019-04-07T11:36:40.965Z,96926.83
2019-04-07T11:39:36.247Z,96929.30
2019-04-07T11:42:31.808Z,96920.27
2019-04-07T11:45:28.916Z,96925.79
2019-04-07T11:48:18.502Z,96933.98
2019-04-07T11:51:02.027Z,96940.49
2019-04-07T11:53:51.284Z,96929.72
2019-04-07T11:56:44.542Z,96932.09
2019-04-07T11:59:43.686Z,96933.91
2019-04-07T12:02:27.331Z,96933.02
2019-04-07T12:05:17.463Z,96933.03
2019-04-07T12:08:28.188Z,96940.25
2019-04-07T12:11:18.722Z,96928.97
2019-04-07T12:14:09.022Z,96929.94
2019-04-07T12:16:51.356Z,96942.33
2019-04-07T12:19:44.933Z,96933.09
2019-04-07T12:22:33.792Z,96936.02
2019-04-07T12:25:21.138Z,96940.67
2019-04-07T12:28:19.450Z,96946.33
2019-04-07T12:31:08.650Z,96941.39
2019-04-07T12:34:14.105Z,96937.54
2019-04-07T12:37:06.498Z,96929.72
2019-04-07T12:39:49.768Z,96936.19
2019-04-07T12:42:47.144Z,96934.27
2019-04-07T12:45:47.104Z,96943.76
2019-04-07T12:48:34.952Z,96935.92
2019-04-07T12:51:22.320Z,96931.69
2019-04-07T12:54:20.718Z,96931.30
2019-04-07T12:57:02.491Z,96937.55
2019-04-07T12:59:52.925Z,96932.20
2019-04-07T13:03:02.757Z,96927.89
2019-04-07T13:05:42.796Z,96928.00
2019-04-07T13:08:39.289Z,96924.84
2019-04-07T13:11:36.290Z,96921.61
2019-04-07T13:14:27.669Z,96927.57
2019-04-07T13:17:33.502Z,96923.56
2019-04-07T13:20:23.372Z,96926.36
2019-04-07T13:23:20.065Z,96931.11
2019-04-07T13:26:18.737Z,96929.16
2019-04-07T13:32:39.346Z,96932.16
2019-04-07T13:35:16.269Z,96925.90
2019-04-07T13:38:32.870Z,96933.14
2019-04-07T13:41:24.435Z,96939.42
2019-04-07T13:44:20.341Z,96940.91
2019-04-07T13:47:13.335Z,96941.73
2019-04-07T13:50:22.447Z,96942.56
2019-04-07T13:53:15.101Z,96941.89
2019-04-07T13:56:03.533Z,96943.66
2019-04-07T13:59:05.970Z,96945.12
2019-04-07T14:01:56.981Z,96943.60
2019-04-07T14:04:40.648Z,96947.20
2019-04-07T14:07:25.222Z,96947.49
2019-04-07T14:10:18.086Z,96945.34
2019-04-07T14:13:06.249Z,96949.44
2019-04-07T14:16:04.922Z,96954.38
2019-04-07T14:18:58.133Z,96954.77
2019-04-07T14:21:49.301Z,96949.47
2019-04-07T14:24:38.306Z,96948.12
2019-04-07T14:27:14.319Z,96956.06
2019-04-07T14:30:19.183Z,96952.28
2019-04-07T14:33:13.073Z,96956.39
2019-04-07T14:36:01.293Z,96951.80
2019-04-07T14:39:02.017Z,96951.74
2019-04-07T14:42:04.000Z,96952.23
2019-04-07T14:44:36.995Z,96951.55
2019-04-07T14:47:19.832Z,96960.63
2019-04-07T14:50:21.149Z,96953.69
2019-04-07T14:53:20.026Z,96953.49
2019-04-07T14:56:08.663Z,96954.32
2019-04-07T14:59:04.414Z,96951.66
2019-04-07T15:02:11.734Z,96954.06
2019-04-07T15:04:53.136Z,96954.21
2019-04-07T15:07:48.410Z,96955.91
2019-04-07T15:10:32.952Z,96949.16
2019-04-07T15:13:50.828Z,96957.73
2019-04-07T15:16:26.318Z,96958.88
2019-04-07T15:18:58.650Z,96960.03
2019-04-07T15:21:53.018Z,96960.00
2019-04-07T15:24:22.663Z,96962.81
2019-04-07T15:26:54.117Z,96958.97
2019-04-07T15:29:29.948Z,96959.40
2019-04-07T15:32:01.790Z,96966.05
2019-04-07T15:34:33.170Z,96965.22
2019-04-07T15:37:19.359Z,96967.48
2019-04-07T15:39:49.456Z,96962.23
2019-04-07T15:42:33.066Z,96968.56
2019-04-07T15:44:57.300Z,96969.01
2019-04-07T15:47:43.025Z,96968.52
2019-04-07T15:51:19.787Z,96969.39
2019-04-07T15:54:01.270Z,96972.09
2019-04-07T15:56:36.857Z,96978.64
2019-04-07T15:59:20.671Z,96975.35
2019-04-07T16:01:54.963Z,96977.41
2019-04-07T16:04:29.287Z,96975.92
2019-04-07T16:07:02.075Z,96980.30
2019-04-07T16:09:40.969Z,96980.27
2019-04-07T16:12:06.547Z,96986.24
2019-04-07T16:14:38.510Z,96982.19
2019-04-07T16:17:12.899Z,96989.61
2019-04-07T16:19:51.014Z,96988.72
2019-04-07T16:22:24.553Z,96986.69
2019-04-07T16:24:57.047Z,96989.49
2019-04-07T16:27:29.380Z,96990.09
2019-04-07T16:30:03.002Z,96995.27
2019-04-07T16:32:34.194Z,96993.35
2019-04-07T16:35:06.827Z,96986.62
2019-04-07T16:37:44.074Z,96991.89
2019-04-07T16:40:22.124Z,96996.88
2019-04-07T16:43:04.604Z,97002.02
2019-04-07T16:45:27.188Z,97004.38
2019-04-07T16:47:58.827Z,97010.66
2019-04-07T16:50:30.406Z,97010.30
2019-04-07T16:53:06.860Z,97011.06
2019-04-07T16:55:50.574Z,97013.59
2019-04-07T16:58:27.550Z,97019.79
2019-04-07T17:00:59.042Z,97018.08
2019-04-07T17:07:02.347Z,97017.64
2019-04-07T17:09:29.330Z,97016.68
2019-04-07T17:12:03.528Z,97020.98
2019-04-07T17:14:36.078Z,97032.11
2019-04-07T17:17:10.007Z,97028.94
2019-04-07T17:19:44.328Z,97027.86
2019-04-07T17:26:36.007Z,97034.69
2019-04-07T17:35:35.850Z,97035.86
2019-04-07T17:41:18.508Z,97028.33
2019-04-07T17:44:08.321Z,97037.70
2019-04-07T17:50:12.703Z,97043.17
2019-04-07T17:53:38.145Z,97044.42
2019-04-07T17:56:33.677Z,97047.34
2019-04-07T18:00:19.241Z,97056.36
2019-04-07T18:23:13.274Z,97073.12
2019-04-07T18:26:14.418Z,97076.52
2019-04-07T18:33:55.112Z,97079.95
2019-04-07T18:37:56.459Z,97090.99
2019-04-07T18:44:50.940Z,97098.47
2019-04-07T18:48:03.412Z,97103.93
2019-04-07T18:51:27.340Z,97111.84
2019-04-07T18:58:15.414Z,97121.42
2019-04-07T19:01:16.970Z,97133.82
2019-04-07T19:04:18.266Z,97137.10
2019-04-07T19:07:00.550Z,97135.11
2019-04-07T19:12:24.791Z,97139.38
2019-04-07T19:15:12.080Z,97140.02
2019-04-07T19:18:05.811Z,97144.05
2019-04-07T19:24:31.436Z,97143.84
2019-04-07T19:27:21.229Z,97143.16
2019-04-07T19:30:26.913Z,97153.75
2019-04-07T19:33:19.167Z,97153.12
2019-04-07T19:36:02.830Z,97151.32
2019-04-07T19:38:41.285Z,97148.48
2019-04-07T19:41:24.369Z,97154.29
2019-04-07T19:44:36.598Z,97154.36
2019-04-07T19:47:36.424Z,97157.00
2019-04-07T19:50:52.891Z,97158.02
2019-04-07T19:53:44.662Z,97163.58
2019-04-07T19:56:25.212Z,97163.13
2019-04-07T20:05:54.867Z,97165.43
2019-04-07T20:08:43.721Z,97174.63
2019-04-07T20:11:40.014Z,97174.36
2019-04-07T20:15:17.912Z,97169.67
2019-04-07T20:18:18.889Z,97168.06
2019-04-07T20:21:18.549Z,97172.45
2019-04-07T20:24:08.786Z,97168.52
2019-04-07T20:30:23.336Z,97173.55
2019-04-07T20:33:32.946Z,97166.69
2019-04-07T20:36:24.229Z,97177.19
2019-04-07T20:42:40.232Z,97184.22
2019-04-07T21:05:10.203Z,97199.16
2019-04-07T21:15:45.252Z,97206.83
2019-04-07T21:45:13.395Z,97213.39
2019-04-07T21:48:03.290Z,97214.93
2019-04-07T21:51:00.614Z,97217.78
2019-04-07T21:53:50.616Z,97207.92
2019-04-07T21:56:44.218Z,97208.76
2019-04-07T21:59:48.525Z,97216.37
2019-04-07T22:02:43.195Z,97217.18
2019-04-07T22:08:46.665Z,97221.10
2019-04-07T22:11:26.694Z,97227.03
2019-04-07T22:16:31.469Z,97226.64
2019-04-07T22:19:46.586Z,97228.76
2019-04-07T22:22:18.499Z,97236.97
2019-04-07T22:24:54.025Z,97236.83
2019-04-07T22:31:36.968Z,97235.84
2019-04-07T22:34:14.739Z,97245.45
2019-04-07T22:36:51.798Z,97246.84
2019-04-07T22:39:28.899Z,97249.91
2019-04-07T22:42:15.218Z,97247.66
